Time;durP1;ratioP1;P1;durP2;ratioP2;P2;SDS_P1;SDS_P2;PMS_P1;PMS_P2;Temp;Humidity;BMP_temperature;BMP_pressure;BME280_temperature;BME280_humidity;BME280_pressure;Samples;Min_cycle;Max_cycle;Signal;HPM_P1;HPM_P2
2020/12/22 00:00:16;;;;;;;1.38;0.70;;;23.30;99.90;;;;;;4953996;28;20058;-76
2020/12/22 00:02:48;;;;;;;1.45;0.60;;;23.40;99.90;;;;;;4996405;23;20047;-75
2020/12/22 00:05:16;;;;;;;2.53;0.50;;;23.30;99.90;;;;;;4975231;28;20026;-76
2020/12/22 00:07:44;;;;;;;0.50;0.40;;;23.30;99.90;;;;;;4957497;28;20042;-77
2020/12/22 00:10:12;;;;;;;1.98;0.52;;;23.30;99.90;;;;;;4999523;23;20062;-77
2020/12/22 00:12:40;;;;;;;1.55;0.55;;;23.30;99.90;;;;;;5001230;28;20054;-77
2020/12/22 00:15:11;;;;;;;1.35;0.47;;;23.30;99.90;;;;;;4986422;28;20089;-79
2020/12/22 00:17:43;;;;;;;0.57;0.20;;;23.30;99.90;;;;;;4979414;28;20034;-77
2020/12/22 00:20:15;;;;;;;1.42;0.60;;;23.40;99.90;;;;;;4975655;28;20103;-77
2020/12/22 00:22:45;;;;;;;1.13;0.50;;;23.50;99.90;;;;;;4975080;28;20077;-77
2020/12/22 00:25:13;;;;;;;2.40;0.40;;;23.50;99.90;;;;;;4989074;28;20033;-77
2020/12/22 00:27:40;;;;;;;0.73;0.30;;;23.60;99.90;;;;;;4970973;23;20071;-77
2020/12/22 00:30:08;;;;;;;1.02;0.32;;;23.60;99.90;;;;;;4974377;28;20022;-77
2020/12/22 00:32:36;;;;;;;0.80;0.30;;;23.60;99.90;;;;;;4969150;28;20038;-77
2020/12/22 00:35:04;;;;;;;0.38;0.10;;;23.60;99.90;;;;;;4944063;28;20488;-77
2020/12/22 00:37:31;;;;;;;2.78;0.60;;;23.70;99.90;;;;;;4967207;28;20034;-78
2020/12/22 00:39:58;;;;;;;1.00;0.50;;;23.70;99.90;;;;;;4972290;28;20077;-77
2020/12/22 00:42:29;;;;;;;0.73;0.40;;;23.80;99.90;;;;;;4969649;28;20074;-77
2020/12/22 00:44:57;;;;;;;1.65;0.20;;;23.90;99.90;;;;;;4970641;28;20058;-78
2020/12/22 00:47:24;;;;;;;0.77;0.40;;;23.90;99.90;;;;;;4970352;28;20391;-77
2020/12/22 00:49:52;;;;;;;2.83;0.50;;;24.10;99.90;;;;;;4970811;28;20030;-77
2020/12/22 00:52:19;;;;;;;2.20;0.40;;;24.20;99.90;;;;;;4970104;28;20023;-77
2020/12/22 00:54:47;;;;;;;0.60;0.28;;;24.40;99.90;;;;;;4955471;28;20468;-79
2020/12/22 00:57:16;;;;;;;1.40;0.45;;;24.50;99.90;;;;;;4969583;28;20058;-78
2020/12/22 00:59:43;;;;;;;2.47;0.35;;;24.60;99.90;;;;;;4970223;23;20051;-76
2020/12/22 01:02:10;;;;;;;1.33;0.32;;;24.50;99.90;;;;;;4942871;28;20047;-75
2020/12/22 01:04:38;;;;;;;2.55;0.50;;;24.40;99.90;;;;;;4945547;28;20031;-75
2020/12/22 01:07:05;;;;;;;0.98;0.30;;;24.40;99.90;;;;;;4951871;28;20127;-75
2020/12/22 01:09:32;;;;;;;0.30;0.10;;;24.20;99.90;;;;;;4953839;28;20089;-75
2020/12/22 01:11:59;;;;;;;0.32;0.25;;;24.30;99.90;;;;;;4955149;28;20027;-75
2020/12/22 01:14:27;;;;;;;2.33;0.25;;;24.50;99.90;;;;;;4935395;28;20036;-78
2020/12/22 01:16:57;;;;;;;0.85;0.20;;;24.60;99.90;;;;;;4951013;28;20031;-77
2020/12/22 01:19:24;;;;;;;0.60;0.22;;;24.70;99.90;;;;;;4954745;28;20361;-77
2020/12/22 01:21:55;;;;;;;4.05;0.20;;;24.60;99.90;;;;;;4951680;28;20027;-77
2020/12/22 01:24:23;;;;;;;1.83;0.63;;;24.70;99.90;;;;;;4954095;28;20062;-77
2020/12/22 01:26:53;;;;;;;0.70;0.30;;;24.70;99.90;;;;;;4944830;28;20026;-78
2020/12/22 01:29:21;;;;;;;1.33;0.38;;;24.70;99.90;;;;;;4936803;29;20552;-77
2020/12/22 01:31:49;;;;;;;1.30;0.40;;;24.50;99.90;;;;;;4933218;28;20085;-77
2020/12/22 01:34:16;;;;;;;0.85;0.30;;;24.70;99.90;;;;;;4954573;28;20388;-78
2020/12/22 01:36:44;;;;;;;1.10;0.30;;;24.90;99.90;;;;;;4951695;28;20115;-77
2020/12/22 01:39:11;;;;;;;0.88;0.43;;;24.80;99.90;;;;;;4953875;28;20484;-77
2020/12/22 01:41:38;;;;;;;1.00;0.30;;;24.80;99.90;;;;;;4952030;28;20043;-78
2020/12/22 01:44:10;;;;;;;2.78;0.40;;;24.80;99.90;;;;;;4965687;28;20066;-80
2020/12/22 01:46:39;;;;;;;2.85;0.30;;;24.90;99.90;;;;;;4935858;28;20492;-78
2020/12/22 01:49:15;;;;;;;2.50;0.30;;;24.90;99.90;;;;;;4950771;28;20492;-78
2020/12/22 01:51:45;;;;;;;1.85;0.73;;;24.90;99.90;;;;;;4951609;28;20031;-77
2020/12/22 01:54:14;;;;;;;1.48;0.38;;;25.20;99.90;;;;;;4957304;28;20030;-77
2020/12/22 01:56:41;;;;;;;1.85;0.20;;;25.40;99.90;;;;;;4944748;28;20046;-77
2020/12/22 01:59:09;;;;;;;0.73;0.10;;;25.40;99.90;;;;;;4952932;28;20038;-77
2020/12/22 02:01:36;;;;;;;1.20;0.40;;;25.20;99.90;;;;;;4995820;23;20089;-78
2020/12/22 02:04:05;;;;;;;0.25;0.20;;;25.30;99.90;;;;;;4977395;23;20109;-79
2020/12/22 02:06:34;;;;;;;1.48;0.50;;;25.30;99.90;;;;;;4966051;28;20049;-77
2020/12/22 02:09:04;;;;;;;2.05;0.40;;;25.20;99.90;;;;;;4967061;23;20054;-77
2020/12/22 02:11:33;;;;;;;0.80;0.40;;;25.20;99.90;;;;;;4959032;28;20031;-78
2020/12/22 02:14:02;;;;;;;0.70;0.30;;;25.00;99.90;;;;;;4957460;28;20031;-78
2020/12/22 02:16:29;;;;;;;1.15;0.30;;;24.80;99.90;;;;;;4951729;28;20503;-77
2020/12/22 02:18:57;;;;;;;2.00;0.28;;;24.70;99.90;;;;;;4983798;23;20503;-76
2020/12/22 02:21:25;;;;;;;0.93;0.30;;;24.90;99.90;;;;;;4952148;28;20042;-78
2020/12/22 02:23:53;;;;;;;1.58;0.50;;;25.00;99.90;;;;;;4957697;28;20081;-78
2020/12/22 02:26:24;;;;;;;1.50;0.40;;;25.00;99.90;;;;;;4969716;28;20392;-78
2020/12/22 02:28:56;;;;;;;1.58;0.25;;;25.20;99.90;;;;;;4953509;28;20087;-77
2020/12/22 02:31:26;;;;;;;3.67;1.10;;;25.20;99.90;;;;;;4955203;28;20062;-77
2020/12/22 02:33:57;;;;;;;1.38;0.43;;;25.20;99.90;;;;;;4955465;23;21043;-80
2020/12/22 02:36:24;;;;;;;0.77;0.30;;;25.40;99.90;;;;;;4971277;28;20031;-79
2020/12/22 02:38:51;;;;;;;2.17;0.32;;;25.70;99.90;;;;;;4953181;28;20503;-77
2020/12/22 02:41:19;;;;;;;0.93;0.30;;;26.00;99.90;;;;;;4956180;28;20420;-78
2020/12/22 02:43:46;;;;;;;2.70;0.45;;;25.90;99.90;;;;;;4971874;28;20037;-76
2020/12/22 02:46:13;;;;;;;5.18;0.45;;;26.10;99.90;;;;;;4964797;28;20114;-78
2020/12/22 02:48:41;;;;;;;0.60;0.35;;;25.90;99.90;;;;;;4953903;28;20038;-78
2020/12/22 02:51:08;;;;;;;0.65;0.30;;;25.70;99.90;;;;;;4964116;28;20509;-78
2020/12/22 02:53:35;;;;;;;1.35;0.80;;;25.60;99.90;;;;;;4953862;28;20030;-78
2020/12/22 02:56:03;;;;;;;1.42;0.40;;;25.70;99.90;;;;;;4970722;28;20050;-78
2020/12/22 02:58:30;;;;;;;0.55;0.10;;;25.70;99.90;;;;;;4978521;28;20032;-80
2020/12/22 03:00:57;;;;;;;0.15;0.10;;;26.00;97.30;;;;;;4972244;28;20023;-81
2020/12/22 03:03:25;;;;;;;3.25;0.28;;;26.30;95.60;;;;;;4968081;28;20022;-81
2020/12/22 03:05:52;;;;;;;0.10;0.00;;;26.70;95.90;;;;;;4971899;28;20047;-80
2020/12/22 03:08:19;;;;;;;1.02;0.10;;;26.60;94.50;;;;;;4976319;23;20055;-81
2020/12/22 03:10:46;;;;;;;0.57;0.10;;;26.60;93.30;;;;;;4953349;28;20058;-82
2020/12/22 03:13:14;;;;;;;1.88;0.30;;;26.30;97.80;;;;;;4937045;28;20031;-83
2020/12/22 03:15:41;;;;;;;1.67;0.10;;;26.50;97.50;;;;;;4934176;29;20036;-83
2020/12/22 03:18:08;;;;;;;0.85;0.15;;;26.40;93.00;;;;;;4948462;28;20781;-79
2020/12/22 03:20:36;;;;;;;2.42;0.10;;;26.30;92.10;;;;;;4940279;29;20024;-85
2020/12/22 03:23:03;;;;;;;0.43;0.08;;;26.20;92.30;;;;;;4949660;28;20493;-82
2020/12/22 03:25:30;;;;;;;0.40;0.10;;;26.30;91.80;;;;;;4953148;28;20560;-80
2020/12/22 03:27:57;;;;;;;1.05;0.10;;;26.00;89.90;;;;;;4952637;28;20031;-81
2020/12/22 03:30:25;;;;;;;0.75;0.10;;;25.90;89.70;;;;;;4958576;28;20025;-81
2020/12/22 03:32:52;;;;;;;0.73;0.30;;;26.00;90.30;;;;;;4955799;28;20038;-85
2020/12/22 03:35:19;;;;;;;0.10;0.00;;;25.70;87.00;;;;;;4954640;28;20074;-82
2020/12/22 03:37:46;;;;;;;1.40;0.10;;;25.70;87.50;;;;;;4954327;28;20031;-83
2020/12/22 03:40:14;;;;;;;0.10;0.00;;;25.70;89.70;;;;;;4956236;28;20031;-83
2020/12/22 03:42:41;;;;;;;0.68;0.10;;;25.80;88.50;;;;;;4951746;28;20035;-87
2020/12/22 03:45:10;;;;;;;0.47;0.20;;;26.00;88.90;;;;;;4953797;28;20186;-81
2020/12/22 03:47:37;;;;;;;3.33;0.10;;;26.20;87.10;;;;;;4922307;29;20031;-86
2020/12/22 03:50:05;;;;;;;1.27;0.10;;;26.10;85.10;;;;;;4956588;28;20031;-81
2020/12/22 03:52:32;;;;;;;1.50;0.10;;;25.90;86.20;;;;;;4954116;28;20038;-80
2020/12/22 03:54:59;;;;;;;0.52;0.00;;;25.80;87.10;;;;;;4954298;28;20027;-81
2020/12/22 03:57:27;;;;;;;0.90;0.00;;;25.80;87.30;;;;;;4951503;28;20027;-85
2020/12/22 03:59:54;;;;;;;0.93;0.10;;;25.80;87.60;;;;;;4956007;28;20020;-82
2020/12/22 04:02:21;;;;;;;0.95;0.20;;;26.00;87.60;;;;;;4934163;28;20039;-86
2020/12/22 04:04:48;;;;;;;0.55;0.10;;;26.00;85.60;;;;;;4946144;28;20031;-84
2020/12/22 04:07:16;;;;;;;7.45;0.40;;;26.00;85.50;;;;;;4943524;28;20031;-79
2020/12/22 04:09:43;;;;;;;0.38;0.30;;;26.10;84.80;;;;;;4985735;23;20050;-84
2020/12/22 04:12:10;;;;;;;0.00;0.00;;;26.40;85.30;;;;;;4978614;23;20067;-88
2020/12/22 04:14:38;;;;;;;1.95;0.10;;;26.50;84.20;;;;;;4959468;28;20528;-86
2020/12/22 04:17:05;;;;;;;2.63;0.10;;;26.60;83.20;;;;;;4972847;23;20069;-81
2020/12/22 04:19:32;;;;;;;1.00;0.00;;;26.70;82.30;;;;;;4945970;29;20500;-84
2020/12/22 04:21:59;;;;;;;1.17;0.10;;;26.80;83.30;;;;;;4953542;29;20070;-84
2020/12/22 04:24:27;;;;;;;0.00;0.00;;;26.70;82.40;;;;;;4954224;28;20023;-80
2020/12/22 04:26:54;;;;;;;0.75;0.10;;;26.80;80.10;;;;;;4978105;23;20070;-85
2020/12/22 04:29:22;;;;;;;1.35;0.10;;;26.80;77.90;;;;;;4957517;28;20023;-79
2020/12/22 04:31:49;;;;;;;0.25;0.10;;;26.50;78.30;;;;;;4970970;28;20038;-87
2020/12/22 04:34:16;;;;;;;0.00;0.00;;;26.50;79.30;;;;;;4974164;28;20035;-87
2020/12/22 04:36:44;;;;;;;0.10;0.08;;;26.40;79.50;;;;;;4972734;28;20117;-90
2020/12/22 04:39:11;;;;;;;0.00;0.00;;;26.30;80.40;;;;;;4957010;28;20038;-81
2020/12/22 04:41:45;;;;;;;0.30;0.03;;;26.30;79.30;;;;;;4989802;23;20017;-87
2020/12/22 04:44:12;;;;;;;0.45;0.10;;;26.20;78.60;;;;;;4973038;28;20439;-83
2020/12/22 04:46:40;;;;;;;0.20;0.10;;;26.30;77.80;;;;;;4965913;28;20031;-80
2020/12/22 04:49:11;;;;;;;0.47;0.20;;;26.30;78.80;;;;;;4962238;28;20554;-82
2020/12/22 04:51:38;;;;;;;0.98;0.10;;;26.30;79.90;;;;;;4966784;28;20094;-84
2020/12/22 04:54:06;;;;;;;0.45;0.10;;;26.40;79.80;;;;;;4970068;28;20025;-84
2020/12/22 04:56:36;;;;;;;0.80;0.10;;;26.30;80.90;;;;;;4967530;28;20104;-79
2020/12/22 04:59:03;;;;;;;1.05;0.52;;;26.30;79.50;;;;;;4951195;28;20080;-80
2020/12/22 05:01:32;;;;;;;2.25;0.40;;;26.20;80.10;;;;;;4970269;28;20448;-81
2020/12/22 05:04:00;;;;;;;2.10;0.10;;;26.20;80.40;;;;;;4953576;28;20548;-83
2020/12/22 05:06:27;;;;;;;0.40;0.00;;;26.40;79.80;;;;;;4967097;28;21921;-85
2020/12/22 05:08:55;;;;;;;2.30;0.25;;;26.80;78.70;;;;;;4968748;28;20365;-81
2020/12/22 05:11:22;;;;;;;0.40;0.10;;;27.10;77.40;;;;;;4968014;28;20039;-80
2020/12/22 05:13:52;;;;;;;0.32;0.10;;;27.10;77.60;;;;;;4971442;28;20077;-83
2020/12/22 05:16:29;;;;;;;0.30;0.10;;;27.20;78.00;;;;;;4980446;23;20078;-85
2020/12/22 05:18:57;;;;;;;0.40;0.10;;;27.20;76.70;;;;;;4937311;29;20077;-85
2020/12/22 05:21:24;;;;;;;1.75;0.10;;;27.40;76.90;;;;;;4958344;28;20030;-85
2020/12/22 05:23:52;;;;;;;0.95;0.00;;;27.50;77.10;;;;;;4972607;28;20027;-85
2020/12/22 05:26:23;;;;;;;1.95;0.10;;;27.50;76.30;;;;;;4970264;28;20030;-80
2020/12/22 05:28:50;;;;;;;0.00;0.00;;;27.40;77.00;;;;;;4973690;28;20134;-80
2020/12/22 05:31:17;;;;;;;0.17;0.00;;;27.10;74.90;;;;;;4971133;28;20456;-81
2020/12/22 05:33:46;;;;;;;3.15;0.10;;;26.90;75.50;;;;;;4968727;28;20031;-90
2020/12/22 05:36:14;;;;;;;1.50;0.15;;;26.80;77.50;;;;;;4973616;28;20065;-83
2020/12/22 05:38:44;;;;;;;0.95;0.10;;;26.80;77.30;;;;;;4964881;28;20031;-88
2020/12/22 05:41:11;;;;;;;0.30;0.20;;;27.00;75.50;;;;;;4953268;28;20377;-85
2020/12/22 05:43:42;;;;;;;0.00;0.00;;;27.30;75.80;;;;;;4969180;28;20054;-85
2020/12/22 05:46:10;;;;;;;0.98;0.05;;;27.50;72.40;;;;;;4972400;28;20165;-85
2020/12/22 05:48:37;;;;;;;5.72;0.30;;;27.40;68.60;;;;;;4971021;28;20109;-85
2020/12/22 05:51:07;;;;;;;1.13;0.00;;;27.20;69.60;;;;;;4973270;28;20069;-80
2020/12/22 05:53:46;;;;;;;0.93;0.40;;;27.00;69.50;;;;;;4971454;28;20082;-86
2020/12/22 05:56:21;;;;;;;1.27;0.05;;;27.20;68.10;;;;;;4955616;28;20069;-82
2020/12/22 05:58:50;;;;;;;0.17;0.10;;;27.20;67.50;;;;;;4972821;28;20077;-87
2020/12/22 06:01:35;;;;;;;1.58;0.10;;;27.20;68.60;;;;;;4969320;28;20035;-83
2020/12/22 06:04:04;;;;;;;0.08;0.08;;;27.00;67.30;;;;;;4968306;28;20162;-87
2020/12/22 06:06:32;;;;;;;0.47;0.10;;;26.90;65.20;;;;;;4971783;28;20051;-84
2020/12/22 06:09:00;;;;;;;0.70;0.20;;;26.60;65.10;;;;;;4971268;28;20026;-82
2020/12/22 06:11:34;;;;;;;1.27;0.10;;;26.50;66.10;;;;;;4969518;28;20480;-83
2020/12/22 06:14:05;;;;;;;1.33;0.10;;;26.50;65.70;;;;;;4973016;28;20042;-84
2020/12/22 06:16:33;;;;;;;0.60;0.10;;;26.50;65.70;;;;;;4988609;23;20137;-80
2020/12/22 06:19:01;;;;;;;1.50;0.32;;;26.70;66.20;;;;;;4996548;23;20047;-83
2020/12/22 06:21:29;;;;;;;1.08;0.10;;;26.80;65.80;;;;;;4975448;28;20050;-84
2020/12/22 06:23:56;;;;;;;0.38;0.10;;;26.80;65.50;;;;;;4979580;23;20067;-83
2020/12/22 06:26:23;;;;;;;1.55;0.10;;;26.70;65.10;;;;;;4970660;28;20059;-83
2020/12/22 06:28:51;;;;;;;0.10;0.00;;;26.50;64.10;;;;;;4972124;28;20031;-83
2020/12/22 06:31:32;;;;;;;1.30;0.05;;;26.60;63.20;;;;;;4963449;28;20113;-88
2020/12/22 06:33:59;;;;;;;0.43;0.10;;;26.40;61.70;;;;;;4982917;23;20062;-83
2020/12/22 06:36:26;;;;;;;0.10;0.00;;;26.20;62.70;;;;;;4949392;28;20332;-80
2020/12/22 06:38:59;;;;;;;0.70;0.10;;;26.10;62.20;;;;;;4954897;28;20062;-80
2020/12/22 06:41:37;;;;;;;0.98;0.10;;;26.10;62.50;;;;;;4949555;29;20058;-83
2020/12/22 06:44:27;;;;;;;1.30;0.00;;;26.10;63.10;;;;;;4953008;29;20510;-80
2020/12/22 06:46:56;;;;;;;0.50;0.15;;;26.10;62.70;;;;;;4949303;29;20110;-78
2020/12/22 06:49:50;;;;;;;0.43;0.10;;;26.10;62.20;;;;;;4986902;23;20032;-88
2020/12/22 06:52:33;;;;;;;0.50;0.13;;;26.10;61.90;;;;;;4976536;28;20121;-84
2020/12/22 06:55:02;;;;;;;0.35;0.10;;;26.00;62.10;;;;;;4990340;28;20019;-84
2020/12/22 06:57:50;;;;;;;2.13;0.20;;;25.90;61.10;;;;;;4969567;28;20030;-83
2020/12/22 07:00:30;;;;;;;0.55;0.20;;;25.90;61.30;;;;;;4991515;28;20107;-85
2020/12/22 07:03:17;;;;;;;1.00;0.10;;;25.80;61.40;;;;;;4989369;28;20038;-89
2020/12/22 07:05:49;;;;;;;0.57;0.10;;;25.80;62.70;;;;;;4978299;28;20118;-86
2020/12/22 07:08:17;;;;;;;0.95;0.10;;;25.80;62.30;;;;;;4960167;28;20077;-89
2020/12/22 07:10:50;;;;;;;0.85;0.10;;;25.80;61.70;;;;;;4976457;28;20027;-93
2020/12/22 07:13:19;;;;;;;1.50;0.20;;;25.80;62.20;;;;;;4973180;28;20109;-88
2020/12/22 07:15:50;;;;;;;1.98;0.10;;;25.70;62.90;;;;;;4986053;28;20368;-83
2020/12/22 07:18:29;;;;;;;0.60;0.10;;;25.70;63.60;;;;;;4991755;28;20109;-86
2020/12/22 07:20:58;;;;;;;2.35;0.10;;;25.60;62.70;;;;;;4984998;28;20113;-85
2020/12/22 07:23:26;;;;;;;0.68;0.25;;;25.60;62.80;;;;;;4989570;23;20511;-83
2020/12/22 07:25:53;;;;;;;1.88;0.17;;;25.60;62.80;;;;;;4986903;28;20064;-87
2020/12/22 07:28:20;;;;;;;0.50;0.22;;;25.60;61.00;;;;;;4976418;28;20046;-89
2020/12/22 07:30:48;;;;;;;0.40;0.10;;;25.60;61.40;;;;;;4976262;28;20049;-87
2020/12/22 07:33:15;;;;;;;2.22;0.10;;;25.60;61.40;;;;;;4974880;28;20023;-90
2020/12/22 07:35:42;;;;;;;1.48;0.15;;;25.60;60.60;;;;;;4976624;28;20089;-89
2020/12/22 07:38:11;;;;;;;0.70;0.20;;;25.60;59.90;;;;;;4990210;28;20517;-91
2020/12/22 07:40:39;;;;;;;1.75;0.10;;;25.50;59.70;;;;;;4996464;28;20031;-89
2020/12/22 07:43:12;;;;;;;2.00;0.25;;;25.40;59.00;;;;;;4980131;28;20045;-85
2020/12/22 07:45:50;;;;;;;0.88;0.10;;;25.40;57.50;;;;;;4991800;28;20062;-87
2020/12/22 07:48:18;;;;;;;1.88;0.10;;;25.40;55.90;;;;;;4993833;28;20042;-84
2020/12/22 07:50:54;;;;;;;0.25;0.10;;;25.40;55.20;;;;;;4982005;28;20050;-88
2020/12/22 07:53:22;;;;;;;1.27;0.40;;;25.30;55.90;;;;;;4976207;28;20106;-84
2020/12/22 07:55:49;;;;;;;1.35;0.20;;;25.30;56.20;;;;;;4975910;28;20026;-86
2020/12/22 07:58:17;;;;;;;2.38;0.40;;;25.20;56.70;;;;;;4989882;28;20029;-86
2020/12/22 08:00:45;;;;;;;0.80;0.20;;;25.20;57.00;;;;;;4994931;28;20383;-89
2020/12/22 08:03:18;;;;;;;4.40;0.70;;;25.20;57.40;;;;;;4977945;28;20050;-88
2020/12/22 08:06:03;;;;;;;1.70;0.30;;;25.10;57.70;;;;;;4977919;28;20356;-91
2020/12/22 08:08:30;;;;;;;4.32;0.90;;;25.10;57.80;;;;;;4992218;28;20026;-92
2020/12/22 08:10:58;;;;;;;1.00;0.52;;;25.10;56.90;;;;;;4978381;28;20019;-87
2020/12/22 08:13:37;;;;;;;3.30;1.15;;;25.10;56.90;;;;;;4977454;28;20038;-83
2020/12/22 08:16:05;;;;;;;0.82;0.43;;;25.10;57.00;;;;;;4975422;28;20439;-88
2020/12/22 08:18:35;;;;;;;0.80;0.20;;;25.10;58.00;;;;;;4992811;28;20507;-85
2020/12/22 08:21:03;;;;;;;1.83;0.20;;;25.10;57.90;;;;;;4994544;28;20038;-85
2020/12/22 08:23:31;;;;;;;1.20;0.30;;;25.10;57.80;;;;;;4987475;23;20089;-89
2020/12/22 08:25:59;;;;;;;2.42;0.30;;;25.00;58.00;;;;;;4959952;23;20394;-85
2020/12/22 08:28:27;;;;;;;0.63;0.20;;;25.00;58.20;;;;;;4972646;23;20054;-85
2020/12/22 08:30:55;;;;;;;1.27;0.17;;;24.90;57.70;;;;;;4975716;28;20082;-89
2020/12/22 08:33:23;;;;;;;0.65;0.32;;;24.80;58.70;;;;;;5003914;23;20058;-89
2020/12/22 08:35:52;;;;;;;1.00;0.10;;;24.90;58.20;;;;;;4956418;28;20027;-87
2020/12/22 08:38:27;;;;;;;0.75;0.20;;;24.80;59.40;;;;;;4971471;28;20069;-90
2020/12/22 08:40:56;;;;;;;0.90;0.20;;;24.70;59.70;;;;;;4987533;23;20113;-88
2020/12/22 08:43:25;;;;;;;0.55;0.30;;;24.60;60.50;;;;;;4976802;28;20034;-89
2020/12/22 08:45:53;;;;;;;1.20;0.43;;;24.60;59.80;;;;;;4966521;28;20030;-88
2020/12/22 08:48:20;;;;;;;1.27;0.20;;;24.50;61.20;;;;;;4976111;28;20050;-88
2020/12/22 08:50:54;;;;;;;0.95;0.25;;;24.50;60.10;;;;;;4979627;28;20070;-88
2020/12/22 08:53:21;;;;;;;1.10;0.20;;;24.50;60.30;;;;;;4976549;28;20030;-87
2020/12/22 08:55:48;;;;;;;0.77;0.32;;;24.40;60.30;;;;;;4996908;28;20027;-86
2020/12/22 08:58:16;;;;;;;1.80;0.30;;;24.30;60.70;;;;;;4985381;23;20535;-86
2020/12/22 09:00:43;;;;;;;1.42;0.30;;;24.30;60.60;;;;;;4976711;28;20023;-90
2020/12/22 09:03:11;;;;;;;2.65;0.60;;;24.20;61.10;;;;;;4953548;28;20069;-88
2020/12/22 09:05:38;;;;;;;5.40;0.40;;;24.10;63.00;;;;;;4959912;28;20050;-83
2020/12/22 09:08:07;;;;;;;3.60;0.30;;;24.10;62.50;;;;;;4967451;28;20535;-89
2020/12/22 09:10:34;;;;;;;1.08;0.28;;;24.10;61.90;;;;;;4972397;28;20033;-89
2020/12/22 09:13:03;;;;;;;1.55;0.30;;;24.10;61.50;;;;;;4980040;28;20018;-92
2020/12/22 09:15:30;;;;;;;1.73;0.30;;;24.00;63.20;;;;;;4957706;28;20028;-88
2020/12/22 09:17:57;;;;;;;0.63;0.20;;;24.00;62.70;;;;;;4964600;28;20023;-89
2020/12/22 09:20:24;;;;;;;3.65;0.50;;;24.00;62.80;;;;;;4972821;28;20488;-92
2020/12/22 09:22:52;;;;;;;1.42;0.50;;;23.90;63.00;;;;;;4957593;28;20058;-86
2020/12/22 09:25:19;;;;;;;1.00;0.20;;;23.90;63.00;;;;;;4969747;28;20449;-85
2020/12/22 09:27:46;;;;;;;1.17;0.30;;;23.90;63.00;;;;;;4976208;28;20035;-86
2020/12/22 09:30:16;;;;;;;1.00;0.40;;;23.90;63.00;;;;;;4991197;23;20050;-87
2020/12/22 09:32:46;;;;;;;1.75;0.32;;;23.80;63.80;;;;;;4975448;28;20035;-90
2020/12/22 09:35:14;;;;;;;4.93;0.40;;;23.70;64.50;;;;;;4958343;28;20077;-84
2020/12/22 09:37:42;;;;;;;2.13;0.30;;;23.80;63.10;;;;;;4956313;28;20073;-91
2020/12/22 09:40:09;;;;;;;4.72;0.40;;;23.70;64.30;;;;;;4957108;28;20023;-82
2020/12/22 09:42:36;;;;;;;1.85;0.20;;;23.70;63.90;;;;;;4975290;28;20035;-88
2020/12/22 09:45:04;;;;;;;0.93;0.20;;;23.60;63.80;;;;;;4968768;28;20022;-89
2020/12/22 09:47:31;;;;;;;0.55;0.13;;;23.70;63.80;;;;;;4975029;28;20115;-83
2020/12/22 09:49:59;;;;;;;1.52;0.38;;;23.60;63.40;;;;;;4957361;28;20397;-86
2020/12/22 09:52:26;;;;;;;1.75;0.82;;;23.60;63.50;;;;;;4974526;28;20038;-88
2020/12/22 09:54:54;;;;;;;0.93;0.65;;;23.60;64.30;;;;;;4974011;28;20540;-87
2020/12/22 09:57:21;;;;;;;1.83;0.28;;;23.50;63.80;;;;;;4956639;28;20038;-88
2020/12/22 09:59:48;;;;;;;0.77;0.40;;;23.40;64.50;;;;;;4974086;28;20038;-89
2020/12/22 10:02:15;;;;;;;3.20;0.20;;;23.40;63.90;;;;;;4973791;28;20030;-89
2020/12/22 10:04:43;;;;;;;0.10;0.00;;;23.30;63.30;;;;;;4973279;28;20454;-87
2020/12/22 10:07:10;;;;;;;2.13;0.20;;;23.30;62.90;;;;;;4974241;28;20361;-84
2020/12/22 10:09:37;;;;;;;7.78;1.33;;;23.30;60.90;;;;;;4973617;28;20436;-82
2020/12/22 10:12:04;;;;;;;0.93;0.20;;;23.30;61.40;;;;;;4973058;28;20037;-81
2020/12/22 10:14:32;;;;;;;1.02;0.20;;;23.20;61.20;;;;;;4946700;28;20038;-83
2020/12/22 10:17:00;;;;;;;0.15;0.10;;;23.10;61.50;;;;;;4937211;28;20027;-88
2020/12/22 10:19:27;;;;;;;0.75;0.20;;;23.10;61.30;;;;;;4973001;28;20051;-84
2020/12/22 10:21:54;;;;;;;0.80;0.10;;;23.00;61.00;;;;;;4973222;28;20058;-84
2020/12/22 10:24:21;;;;;;;0.98;0.17;;;23.00;60.80;;;;;;4971432;28;20038;-84
2020/12/22 10:26:49;;;;;;;3.53;0.22;;;23.00;60.70;;;;;;4972740;28;20037;-83
2020/12/22 10:29:16;;;;;;;2.00;0.10;;;22.80;61.30;;;;;;4972545;28;20122;-83
2020/12/22 10:31:43;;;;;;;0.10;0.00;;;22.80;61.90;;;;;;4988024;23;20055;-84
2020/12/22 10:36:38;;;;;;;1.45;0.20;;;22.70;61.90;;;;;;4951095;28;20055;-83
2020/12/22 10:39:05;;;;;;;0.32;0.10;;;22.60;62.30;;;;;;4961856;22;20507;-82
2020/12/22 10:41:35;;;;;;;1.42;0.40;;;22.50;62.70;;;;;;4971747;28;20082;-83
2020/12/22 10:44:02;;;;;;;1.65;0.38;;;22.40;63.10;;;;;;4971357;28;20114;-83
2020/12/22 10:46:29;;;;;;;1.85;0.28;;;22.40;63.00;;;;;;4967159;28;20116;-88
2020/12/22 10:48:57;;;;;;;0.65;0.20;;;22.40;63.40;;;;;;4975544;22;20142;-82
2020/12/22 10:51:24;;;;;;;1.08;0.38;;;22.40;63.60;;;;;;4966951;28;20045;-83
2020/12/22 10:53:51;;;;;;;0.93;0.30;;;22.30;64.60;;;;;;4969696;28;20073;-84
2020/12/22 10:56:18;;;;;;;0.85;0.20;;;22.30;63.80;;;;;;4968258;28;20461;-88
2020/12/22 10:58:46;;;;;;;1.73;0.45;;;22.30;62.00;;;;;;4966206;28;20026;-89
2020/12/22 11:01:14;;;;;;;2.92;0.20;;;22.30;63.30;;;;;;4968768;28;20078;-85
2020/12/22 11:03:43;;;;;;;1.58;0.30;;;22.20;62.40;;;;;;4967055;28;20038;-85
2020/12/22 11:06:29;;;;;;;0.22;0.10;;;22.10;61.50;;;;;;4977638;23;20439;-87
2020/12/22 11:08:56;;;;;;;1.05;0.10;;;22.10;60.40;;;;;;4962908;28;20035;-86
2020/12/22 11:11:25;;;;;;;0.03;0.00;;;22.10;60.50;;;;;;4970093;28;20031;-84
2020/12/22 11:13:52;;;;;;;0.30;0.00;;;22.10;60.00;;;;;;4969585;28;20062;-89
2020/12/22 11:16:29;;;;;;;0.32;0.10;;;22.00;58.60;;;;;;4966947;28;20023;-85
2020/12/22 11:18:56;;;;;;;2.58;0.32;;;21.90;59.70;;;;;;4952584;28;20058;-86
2020/12/22 11:21:24;;;;;;;2.10;0.25;;;21.90;59.30;;;;;;4957160;28;20511;-83
2020/12/22 11:23:52;;;;;;;0.60;0.17;;;21.90;59.10;;;;;;4969922;28;20038;-82
2020/12/22 11:26:23;;;;;;;1.00;0.10;;;21.80;59.20;;;;;;4968529;28;20026;-86
2020/12/22 11:28:52;;;;;;;2.45;0.15;;;21.80;59.20;;;;;;4965211;28;20031;-84
2020/12/22 11:31:20;;;;;;;2.25;0.10;;;21.70;59.30;;;;;;4969197;28;20027;-86
2020/12/22 11:33:48;;;;;;;0.65;0.10;;;21.60;59.10;;;;;;4971353;28;20035;-83
2020/12/22 11:36:16;;;;;;;0.25;0.05;;;21.60;59.40;;;;;;4970522;28;20023;-83
2020/12/22 11:38:43;;;;;;;0.50;0.10;;;21.40;61.00;;;;;;4986776;23;20055;-90
2020/12/22 11:41:11;;;;;;;0.75;0.10;;;21.40;61.20;;;;;;4972639;28;20037;-84
2020/12/22 11:43:38;;;;;;;0.20;0.10;;;21.40;60.10;;;;;;4972049;28;20107;-84
2020/12/22 11:46:09;;;;;;;0.15;0.10;;;21.40;60.80;;;;;;4963196;28;20035;-85
2020/12/22 11:48:39;;;;;;;1.38;0.10;;;21.30;60.60;;;;;;4971035;28;20105;-84
2020/12/22 11:51:06;;;;;;;0.38;0.10;;;21.30;61.50;;;;;;4952985;28;20023;-85
2020/12/22 11:53:34;;;;;;;1.10;0.10;;;21.20;61.30;;;;;;4969428;28;20027;-91
2020/12/22 11:56:06;;;;;;;1.55;0.20;;;21.20;61.00;;;;;;4955907;28;20082;-85
2020/12/22 11:58:33;;;;;;;1.17;0.20;;;21.20;61.20;;;;;;4954462;28;20027;-83
2020/12/22 12:01:00;;;;;;;0.60;0.10;;;21.20;61.30;;;;;;4954301;28;20054;-85
2020/12/22 12:03:28;;;;;;;1.17;0.10;;;21.20;61.20;;;;;;4949575;28;20126;-87
2020/12/22 12:05:55;;;;;;;0.47;0.10;;;21.20;61.20;;;;;;4954867;28;20051;-87
2020/12/22 12:08:22;;;;;;;0.38;0.10;;;21.20;61.50;;;;;;4958821;28;20046;-86
2020/12/22 12:10:50;;;;;;;1.17;0.08;;;21.10;62.80;;;;;;4967724;28;20019;-87
2020/12/22 12:13:17;;;;;;;1.17;0.08;;;21.10;62.60;;;;;;4971200;28;20033;-87
2020/12/22 12:15:44;;;;;;;0.55;0.10;;;21.00;61.60;;;;;;4944226;28;20039;-90
2020/12/22 12:18:11;;;;;;;1.48;0.22;;;21.10;62.20;;;;;;4961268;28;20062;-80
2020/12/22 12:20:39;;;;;;;0.57;0.00;;;21.00;62.60;;;;;;4953651;28;20059;-85
2020/12/22 12:25:33;;;;;;;0.40;0.10;;;21.00;63.10;;;;;;4993348;28;20061;-86
2020/12/22 12:28:01;;;;;;;0.45;0.00;;;21.00;63.00;;;;;;4977296;28;20038;-84
2020/12/22 12:30:28;;;;;;;1.25;0.00;;;20.90;63.90;;;;;;4977148;28;20031;-86
2020/12/22 12:32:55;;;;;;;1.30;0.30;;;20.90;63.00;;;;;;4974798;28;20054;-85
2020/12/22 12:35:22;;;;;;;3.58;0.10;;;20.80;64.10;;;;;;4974879;28;20031;-83
2020/12/22 12:37:50;;;;;;;0.85;0.10;;;20.90;64.30;;;;;;4977254;28;20031;-86
2020/12/22 12:40:17;;;;;;;0.22;0.00;;;20.90;63.70;;;;;;5008213;23;20050;-87
2020/12/22 12:42:44;;;;;;;0.52;0.10;;;20.80;63.60;;;;;;4989082;23;20058;-88
2020/12/22 12:45:13;;;;;;;0.40;0.17;;;20.70;63.90;;;;;;4957256;28;20027;-88
2020/12/22 12:47:42;;;;;;;2.35;0.10;;;20.70;63.50;;;;;;5004204;23;20056;-90
2020/12/22 12:50:09;;;;;;;2.65;0.22;;;20.50;64.70;;;;;;4980048;28;20259;-92
2020/12/22 12:52:37;;;;;;;1.95;0.63;;;20.40;65.80;;;;;;4961496;28;20050;-87
2020/12/22 12:55:04;;;;;;;0.17;0.10;;;20.30;66.70;;;;;;4977400;22;20055;-82
2020/12/22 12:57:31;;;;;;;5.00;0.25;;;20.20;67.50;;;;;;4967181;28;20053;-92
2020/12/22 12:59:59;;;;;;;1.30;0.20;;;20.10;68.20;;;;;;4971008;28;20022;-88